NH4 weather

CLOSED Orangeville Airport
Orangeville, Ontario, Canada

Public forecast

Using degrees Celsius for public forecast. Weather courtesy of forecast.io.

Closest aviation weather report (METAR) to Orangeville Airport

Closest report is Lester B. Pearson International Airport, 21.4 nm (39.7 km) SE. Retrieved 2019/10/17 02:00 UTC (28 minutes ago):

CYYZ 170200Z 19008KT 15SM SCT018 OVC040 08/06 A2947 RMK ST3SC5 SLP983

Closest aviation forecast (TAF) to Orangeville Airport

Closest forecast is Lester B. Pearson International Airport, 21.4 nm (39.7 km) SE. Retrieved 2019-10-17 03:39 UTC (0 seconds ago):

TAF CYYZ 170238Z 1703/1806 19008KT P6SM SCT020 OVC040 TEMPO 1703/1706 P6SM -SHRA OVC015 BECMG 1703/1705 29012KT FM170600 30015KT P6SM OVC015 TEMPO 1706/1709 P6SM -SHRA FM170900 31015G25KT P6SM OVC015 TEMPO 1709/1720 P6SM -SHRA BECMG 1710/1712 33020G35KT FM172300 33015G30KT P6SM BKN015 BECMG 1801/1803 34012G22KT RMK NXT FCST BY 170600Z